Time;durP1;ratioP1;P1;durP2;ratioP2;P2;SDS_P1;SDS_P2;PMS_P1;PMS_P2;Temp;Humidity;BMP_temperature;BMP_pressure;BME280_temperature;BME280_humidity;BME280_pressure;Samples;Min_cycle;Max_cycle;Signal;HPM_P1;HPM_P2
2022/04/08 00:03:52;;;;;;;0.70;0.20;;;;;;;8.17;73.60;96299.92;219128;1279;22561;-73
2022/04/08 00:08:54;;;;;;;2.90;0.50;;;;;;;8.13;73.98;96293.48;219193;1279;24292;-72
2022/04/08 00:13:56;;;;;;;1.20;0.40;;;;;;;8.08;74.31;96295.70;219094;1280;24267;-73
2022/04/08 00:19:08;;;;;;;0.70;0.50;;;;;;;8.05;74.51;96300.57;218830;1281;22607;-73
2022/04/08 00:24:10;;;;;;;1.30;0.40;;;;;;;8.04;74.57;96298.63;218903;1279;24317;-72
2022/04/08 00:29:24;;;;;;;0.70;0.60;;;;;;;8.05;74.25;96303.23;218664;1280;22638;-73
2022/04/08 00:34:27;;;;;;;0.60;0.30;;;;;;;8.05;73.65;96298.90;219033;1280;24241;-72
2022/04/08 00:39:32;;;;;;;0.90;0.30;;;;;;;8.02;73.32;96307.86;219412;1280;22567;-73
2022/04/08 00:44:34;;;;;;;0.30;0.20;;;;;;;7.89;72.79;96320.39;219261;1279;25404;-72
2022/04/08 00:49:38;;;;;;;1.10;0.20;;;;;;;7.73;72.57;96314.84;219043;1277;25418;-72
2022/04/08 00:54:47;;;;;;;0.20;0.10;;;;;;;7.64;72.40;96317.04;219126;1281;23103;-72
2022/04/08 00:59:50;;;;;;;0.40;0.20;;;;;;;7.57;72.10;96316.13;218907;1277;22577;-73
2022/04/08 01:05:04;;;;;;;1.30;0.20;;;;;;;7.53;71.62;96323.76;219167;1279;24316;-72
2022/04/08 01:10:10;;;;;;;1.50;0.30;;;;;;;7.51;70.95;96339.90;219328;1280;25261;-72
2022/04/08 01:15:23;;;;;;;0.70;0.30;;;;;;;7.45;70.77;96338.62;219395;1279;22662;-72
2022/04/08 01:20:28;;;;;;;0.60;0.20;;;;;;;7.41;70.65;96348.81;219432;1280;26370;-73
2022/04/08 01:25:39;;;;;;;1.00;0.30;;;;;;;7.41;70.22;96356.42;219291;1281;23301;-72
2022/04/08 01:30:42;;;;;;;0.40;0.40;;;;;;;7.40;69.57;96366.73;219442;1280;25305;-72
2022/04/08 01:35:47;;;;;;;0.40;0.40;;;;;;;7.41;69.27;96374.77;219170;1281;22593;-71
2022/04/08 01:40:50;;;;;;;1.00;0.40;;;;;;;7.38;68.62;96372.59;219388;1281;24216;-72
2022/04/08 01:46:01;;;;;;;0.40;0.20;;;;;;;7.38;67.80;96378.63;219530;1280;22532;-73
2022/04/08 01:51:04;;;;;;;0.90;0.20;;;;;;;7.43;67.68;96394.23;219573;1278;22547;-73
2022/04/08 01:56:09;;;;;;;0.70;0.30;;;;;;;7.46;67.10;96399.46;219513;1281;24307;-72
2022/04/08 02:01:12;;;;;;;1.30;0.40;;;;;;;7.46;66.75;96400.14;219094;1281;22536;-73
2022/04/08 02:06:14;;;;;;;1.20;0.40;;;;;;;7.46;66.45;96416.64;219118;1281;22564;-72
2022/04/08 02:11:20;;;;;;;0.40;0.30;;;;;;;7.46;65.53;96426.63;218933;1281;23263;-73
2022/04/08 02:16:22;;;;;;;1.80;0.70;;;;;;;7.47;64.47;96436.57;219277;1281;22580;-73
2022/04/08 02:21:25;;;;;;;2.40;0.50;;;;;;;7.45;64.05;96435.73;218732;1281;22570;-72
2022/04/08 02:26:44;;;;;;;2.90;0.50;;;;;;;7.35;63.69;96446.77;219144;1281;22734;-71
2022/04/08 02:31:46;;;;;;;1.70;0.70;;;;;;;7.22;63.20;96444.11;219004;1281;22581;-71
2022/04/08 02:36:50;;;;;;;0.80;0.40;;;;;;;7.14;62.58;96448.20;219257;1280;24349;-73
2022/04/08 02:41:53;;;;;;;1.50;0.40;;;;;;;7.04;62.43;96453.33;218598;1281;22539;-71
2022/04/08 02:46:55;;;;;;;1.10;0.50;;;;;;;6.92;62.79;96452.23;218746;1278;22559;-72
2022/04/08 02:51:58;;;;;;;2.70;0.50;;;;;;;6.80;62.72;96460.61;218870;1277;22714;-72
2022/04/08 02:57:01;;;;;;;2.00;0.60;;;;;;;6.73;61.89;96468.68;218903;1280;22559;-70
2022/04/08 03:02:04;;;;;;;1.00;0.40;;;;;;;6.67;61.58;96479.23;219105;1279;22650;-72
2022/04/08 03:07:06;;;;;;;0.70;0.70;;;;;;;6.61;61.06;96491.98;219326;1281;25448;-72
2022/04/08 03:12:09;;;;;;;2.90;0.50;;;;;;;6.52;61.00;96492.92;218941;1281;22554;-73
2022/04/08 03:17:12;;;;;;;2.20;0.70;;;;;;;6.41;60.81;96493.77;219060;1281;22637;-72
2022/04/08 03:22:20;;;;;;;2.80;0.90;;;;;;;6.34;60.21;96506.85;219242;1279;25340;-71
2022/04/08 03:27:32;;;;;;;2.70;0.70;;;;;;;6.30;59.79;96516.24;218924;1281;25339;-71
2022/04/08 03:32:34;;;;;;;2.00;0.60;;;;;;;6.27;60.05;96513.86;219216;1279;22550;-72
2022/04/08 03:37:37;;;;;;;6.00;0.70;;;;;;;6.23;59.63;96516.28;218486;1281;22768;-71
2022/04/08 03:42:42;;;;;;;1.60;0.50;;;;;;;6.24;58.99;96518.60;219036;1281;25317;-73
2022/04/08 03:47:44;;;;;;;1.10;0.40;;;;;;;6.24;58.92;96519.13;218977;1279;26522;-72
2022/04/08 03:52:46;;;;;;;1.60;0.60;;;;;;;6.25;58.42;96525.85;219270;1279;22572;-72
2022/04/08 03:57:48;;;;;;;1.20;0.40;;;;;;;6.28;57.72;96538.73;219377;1280;26404;-73
2022/04/08 04:02:51;;;;;;;2.80;0.50;;;;;;;6.35;57.42;96548.14;219213;1279;22570;-73
2022/04/08 04:07:53;;;;;;;3.20;0.60;;;;;;;6.37;57.11;96559.47;218955;1281;22631;-72
2022/04/08 04:13:03;;;;;;;1.30;0.40;;;;;;;6.35;56.42;96554.36;218954;1279;22567;-72
2022/04/08 04:18:17;;;;;;;;;;;;;;;;;;;;;
2022/04/08 04:23:19;;;;;;;3.10;1.00;;;;;;;6.28;56.17;96569.86;219180;1279;22697;-73
2022/04/08 04:28:29;;;;;;;2.20;0.60;;;;;;;6.26;56.09;96571.68;219061;1280;22581;-73
2022/04/08 04:33:57;;;;;;;2.50;0.60;;;;;;;6.29;56.44;96585.50;219222;1279;22567;-71
2022/04/08 04:39:10;;;;;;;2.00;0.60;;;;;;;6.34;57.09;96591.72;219291;1280;24267;-71
2022/04/08 04:44:13;;;;;;;3.80;0.70;;;;;;;6.35;57.55;96598.52;219177;1278;25215;-73
2022/04/08 04:49:18;;;;;;;3.10;0.80;;;;;;;6.37;57.88;96608.35;219252;1279;25330;-73
2022/04/08 04:54:20;;;;;;;1.70;0.70;;;;;;;6.41;58.08;96626.20;219464;1280;26384;-73
2022/04/08 04:59:22;;;;;;;3.00;0.80;;;;;;;6.45;58.00;96628.84;219243;1279;22542;-72
2022/04/08 05:04:24;;;;;;;4.90;1.00;;;;;;;6.51;58.11;96628.55;219253;1279;23209;-73
2022/04/08 05:09:26;;;;;;;1.30;0.60;;;;;;;6.60;58.05;96642.05;219051;1279;22582;-71
2022/04/08 05:14:29;;;;;;;5.80;0.60;;;;;;;6.68;58.19;96648.09;219047;1281;24266;-72
2022/04/08 05:19:31;;;;;;;2.60;1.20;;;;;;;6.77;57.84;96654.94;219307;1279;22710;-72
2022/04/08 05:24:33;;;;;;;2.60;0.80;;;;;;;6.89;57.13;96669.23;219057;1281;22536;-72
2022/04/08 05:29:39;;;;;;;2.50;0.50;;;;;;;7.06;56.90;96674.59;219221;1279;22534;-73
2022/04/08 05:34:50;;;;;;;2.80;1.30;;;;;;;7.23;55.82;96674.81;219531;1279;24334;-71
2022/04/08 05:39:53;;;;;;;2.60;0.90;;;;;;;7.41;54.56;96682.84;219440;1279;22728;-72
2022/04/08 05:44:58;;;;;;;2.30;0.80;;;;;;;7.57;54.14;96688.83;219766;1279;22568;-73
2022/04/08 05:50:04;;;;;;;2.00;0.60;;;;;;;7.70;53.25;96701.54;219542;1278;25316;-72
2022/04/08 05:55:12;;;;;;;1.80;0.90;;;;;;;7.86;52.68;96711.66;219541;1279;22693;-72
2022/04/08 06:00:18;;;;;;;5.80;1.10;;;;;;;7.97;53.41;96714.48;219909;1278;22552;-72
2022/04/08 06:05:24;;;;;;;5.00;1.20;;;;;;;8.04;52.46;96716.80;219597;1279;22568;-72
2022/04/08 06:10:30;;;;;;;2.40;0.70;;;;;;;8.04;52.12;96734.23;219545;1278;22562;-73
2022/04/08 06:15:36;;;;;;;3.40;1.00;;;;;;;8.12;51.98;96735.76;219553;1279;22681;-73
2022/04/08 06:20:39;;;;;;;2.70;0.70;;;;;;;8.29;51.32;96738.55;219596;1279;22569;-73
2022/04/08 06:25:41;;;;;;;5.70;1.10;;;;;;;8.50;50.84;96747.67;219619;1278;22562;-73
2022/04/08 06:30:44;;;;;;;2.40;0.80;;;;;;;8.69;50.18;96754.85;219361;1278;22568;-73
2022/04/08 06:35:49;;;;;;;3.30;0.80;;;;;;;8.80;49.77;96765.38;219387;1278;22544;-73
2022/04/08 06:40:52;;;;;;;2.80;0.80;;;;;;;9.08;49.95;96773.55;219669;1277;22956;-72
2022/04/08 06:45:55;;;;;;;3.40;1.00;;;;;;;9.34;49.12;96776.46;219497;1278;25422;-73
2022/04/08 06:51:00;;;;;;;2.30;0.80;;;;;;;9.53;48.86;96779.48;219107;1279;22578;-72
2022/04/08 06:56:05;;;;;;;3.50;0.70;;;;;;;9.68;47.66;96780.05;219560;1278;24430;-72
2022/04/08 07:01:08;;;;;;;2.00;0.60;;;;;;;9.79;47.45;96790.64;219556;1278;22698;-72
2022/04/08 07:06:13;;;;;;;1.60;0.60;;;;;;;9.84;47.04;96798.92;219172;1280;22773;-69
2022/04/08 07:11:16;;;;;;;2.00;0.60;;;;;;;9.84;46.77;96805.88;219542;1278;22586;-72
2022/04/08 07:16:19;;;;;;;1.80;0.60;;;;;;;9.91;46.67;96801.44;219120;1278;22714;-70
2022/04/08 07:21:22;;;;;;;2.60;0.50;;;;;;;10.14;46.22;96811.10;219245;1279;23390;-72
2022/04/08 07:26:25;;;;;;;0.90;0.60;;;;;;;10.39;45.83;96819.26;219235;1279;294397;-72
2022/04/08 07:31:34;;;;;;;2.00;0.70;;;;;;;10.53;45.21;96823.15;219704;1278;25369;-73
2022/04/08 07:36:37;;;;;;;2.00;0.40;;;;;;;10.53;44.52;96835.08;219596;1279;22646;-73
2022/04/08 07:41:39;;;;;;;2.20;0.70;;;;;;;10.52;44.34;96837.50;219356;1278;25256;-73
2022/04/08 07:46:42;;;;;;;0.80;0.60;;;;;;;10.63;43.83;96836.98;219600;1279;26396;-73
2022/04/08 07:51:48;;;;;;;1.80;0.40;;;;;;;10.62;42.90;96849.89;219543;1278;22543;-73
2022/04/08 07:56:51;;;;;;;1.70;0.50;;;;;;;10.62;43.14;96867.94;219813;1277;25305;-72
2022/04/08 08:01:54;;;;;;;1.30;0.50;;;;;;;10.68;43.02;96871.41;219554;1278;22696;-72
2022/04/08 08:07:00;;;;;;;1.20;0.40;;;;;;;10.67;42.69;96884.70;219649;1278;22610;-72
2022/04/08 08:12:06;;;;;;;1.00;0.50;;;;;;;10.74;42.43;96891.56;219717;1277;22552;-73
2022/04/08 08:17:09;;;;;;;1.80;0.40;;;;;;;10.80;43.29;96894.34;219326;1279;22715;-72
2022/04/08 08:22:14;;;;;;;1.90;0.70;;;;;;;10.86;43.07;96905.73;219641;1279;22629;-72
2022/04/08 08:27:17;;;;;;;1.10;0.90;;;;;;;10.78;42.01;96903.11;219462;1279;22587;-71
2022/04/08 08:32:32;;;;;;;1.60;0.50;;;;;;;10.62;41.97;96928.14;219608;1278;24325;-71
2022/04/08 08:37:35;;;;;;;1.90;0.50;;;;;;;10.52;42.72;96929.38;219451;1279;22550;-73
2022/04/08 08:42:47;;;;;;;2.70;1.10;;;;;;;10.53;43.50;96938.79;219383;1279;25537;-71
2022/04/08 08:47:52;;;;;;;1.80;0.60;;;;;;;10.63;43.72;96940.52;219451;1280;24290;-72
2022/04/08 08:52:55;;;;;;;1.50;0.60;;;;;;;10.70;43.14;96944.88;219604;1279;24244;-71
2022/04/08 08:57:57;;;;;;;1.60;0.50;;;;;;;10.81;42.74;96941.21;219897;1279;22565;-72
2022/04/08 09:03:00;;;;;;;1.20;0.50;;;;;;;10.86;42.41;96941.85;219885;1277;23359;-72
2022/04/08 09:08:05;;;;;;;1.60;0.90;;;;;;;11.00;42.86;96943.59;219520;1277;25287;-72
2022/04/08 09:13:19;;;;;;;2.20;0.90;;;;;;;11.20;42.05;96954.67;219611;1277;25398;-71
2022/04/08 09:18:21;;;;;;;1.40;0.80;;;;;;;11.31;42.50;96953.92;219567;1278;22578;-72
2022/04/08 09:23:24;;;;;;;2.60;1.50;;;;;;;11.53;41.98;96957.92;219790;1277;26387;-71
2022/04/08 09:28:34;;;;;;;1.20;0.50;;;;;;;11.69;42.01;96958.40;219479;1279;23736;-72
2022/04/08 09:33:53;;;;;;;1.40;0.50;;;;;;;11.86;41.37;96972.83;219655;1277;25528;-71
2022/04/08 09:38:59;;;;;;;1.00;0.60;;;;;;;12.03;41.01;96977.70;219549;1277;22611;-73
2022/04/08 09:44:02;;;;;;;2.10;0.80;;;;;;;12.11;41.44;96973.15;219419;1279;22869;-72
2022/04/08 09:49:07;;;;;;;1.60;0.80;;;;;;;12.04;40.93;96970.90;219564;1281;22673;-72
2022/04/08 09:54:16;;;;;;;1.10;0.80;;;;;;;11.95;41.17;96971.55;219560;1279;25429;-73
2022/04/08 09:59:23;;;;;;;2.20;0.60;;;;;;;12.00;41.59;96970.31;219514;1279;22555;-72
2022/04/08 10:04:50;;;;;;;2.00;0.80;;;;;;;12.06;41.16;96972.17;219368;1278;22630;-72
2022/04/08 10:10:28;;;;;;;5.70;1.90;;;;;;;12.00;40.22;96972.92;219627;1278;24134;-73
2022/04/08 10:15:42;;;;;;;2.70;0.70;;;;;;;11.94;40.59;96976.91;219836;1279;24267;-73
2022/04/08 10:20:48;;;;;;;1.30;0.60;;;;;;;12.15;41.01;96972.39;219351;1279;23740;-72
2022/04/08 10:25:58;;;;;;;2.00;0.60;;;;;;;12.31;40.19;96979.81;219690;1277;22744;-72
2022/04/08 10:31:12;;;;;;;1.90;0.90;;;;;;;12.29;40.42;96975.39;219880;1279;24262;-73
2022/04/08 10:36:40;;;;;;;0.50;0.40;;;;;;;12.17;39.97;96982.27;219486;1279;23562;-71
2022/04/08 10:42:02;;;;;;;1.30;0.60;;;;;;;12.12;39.87;96983.81;219858;1279;22551;-71
2022/04/08 10:47:16;;;;;;;3.00;1.60;;;;;;;12.11;40.28;96991.31;219473;1279;24861;-72
2022/04/08 10:52:28;;;;;;;2.60;0.90;;;;;;;12.26;40.42;96990.70;219585;1279;22941;-72
2022/04/08 10:57:33;;;;;;;1.00;0.50;;;;;;;12.30;40.40;96988.77;219698;1279;24255;-72
2022/04/08 11:02:43;;;;;;;1.90;0.90;;;;;;;12.36;40.61;97002.80;219530;1279;24326;-71
2022/04/08 11:07:48;;;;;;;2.10;0.90;;;;;;;12.39;40.62;96998.98;219284;1279;25461;-71
2022/04/08 11:12:53;;;;;;;2.70;0.70;;;;;;;12.52;40.74;96998.02;220072;1279;22574;-72
2022/04/08 11:18:00;;;;;;;1.40;0.70;;;;;;;12.70;39.53;96999.52;220011;1279;22557;-73
2022/04/08 11:23:04;;;;;;;1.60;1.20;;;;;;;12.77;38.91;96995.56;219669;1279;22547;-71
2022/04/08 11:28:10;;;;;;;1.30;0.60;;;;;;;12.85;38.71;96997.22;219415;1279;22562;-72
2022/04/08 11:33:15;;;;;;;4.50;3.30;;;;;;;13.30;38.29;96984.20;219783;1279;24240;-71
2022/04/08 11:38:24;;;;;;;1.30;0.90;;;;;;;13.65;38.51;96985.94;219758;1279;22544;-72
2022/04/08 11:43:27;;;;;;;1.60;0.60;;;;;;;13.57;36.25;96987.83;219605;1279;22597;-72
2022/04/08 11:48:30;;;;;;;2.50;0.70;;;;;;;13.39;36.89;96977.21;219114;1277;22541;-71
2022/04/08 11:53:48;;;;;;;0.40;0.40;;;;;;;13.55;36.71;96974.16;219547;1279;22571;-72
2022/04/08 11:59:08;;;;;;;;;;;;;;;13.82;35.84;96973.67;219227;1281;25360;-71
2022/04/08 12:04:12;;;;;;;1.10;0.60;;;;;;;13.76;35.71;96967.25;219641;1279;22586;-72
2022/04/08 12:09:17;;;;;;;1.70;0.60;;;;;;;13.74;35.97;96976.58;219665;1279;22690;-72
2022/04/08 12:14:20;;;;;;;2.10;0.60;;;;;;;13.88;36.16;96967.40;219998;1279;22608;-71
2022/04/08 12:19:23;;;;;;;1.60;0.60;;;;;;;14.01;35.82;96974.59;219714;1279;24357;-69
2022/04/08 12:24:48;;;;;;;2.30;0.80;;;;;;;14.18;35.69;96967.73;219828;1278;22673;-71
2022/04/08 12:30:09;;;;;;;2.60;1.00;;;;;;;14.20;35.47;96965.01;219625;1279;24983;-71
2022/04/08 12:35:19;;;;;;;3.80;1.80;;;;;;;14.09;35.04;96953.73;219915;1278;25244;-72
2022/04/08 12:40:23;;;;;;;2.30;1.50;;;;;;;13.97;35.83;96949.48;219869;1279;22601;-72
2022/04/08 12:45:28;;;;;;;6.30;1.70;;;;;;;13.97;35.84;96932.90;219711;1278;25331;-70
2022/04/08 12:50:32;;;;;;;2.10;1.00;;;;;;;14.13;33.56;96937.13;219589;1279;25286;-71
2022/04/08 12:55:41;;;;;;;2.70;1.10;;;;;;;14.15;33.86;96929.00;219701;1279;25365;-72
2022/04/08 13:00:53;;;;;;;1.20;0.60;;;;;;;14.29;33.06;96920.33;219638;1279;22576;-71
2022/04/08 13:05:56;;;;;;;2.30;0.80;;;;;;;14.34;32.70;96918.88;219430;1279;22587;-71
2022/04/08 13:11:01;;;;;;;3.10;2.30;;;;;;;14.44;32.99;96916.81;219244;1279;22712;-72
2022/04/08 13:16:04;;;;;;;1.20;0.70;;;;;;;14.35;31.56;96910.27;219426;1279;22535;-72
2022/04/08 13:21:08;;;;;;;1.50;0.60;;;;;;;14.07;32.26;96895.92;219047;1279;22558;-72
2022/04/08 13:26:11;;;;;;;1.30;0.70;;;;;;;13.99;32.92;96891.56;219502;1279;22901;-71
2022/04/08 13:31:14;;;;;;;1.00;0.90;;;;;;;14.00;33.23;96884.19;219657;1279;24302;-71
2022/04/08 13:36:22;;;;;;;1.00;0.60;;;;;;;13.95;33.63;96873.71;219666;1279;22777;-73
2022/04/08 13:41:26;;;;;;;2.00;1.10;;;;;;;14.03;33.78;96870.79;219646;1279;22606;-72
2022/04/08 13:46:33;;;;;;;1.30;0.90;;;;;;;14.06;34.12;96857.30;219582;1279;25467;-72
2022/04/08 13:51:37;;;;;;;1.30;0.70;;;;;;;14.09;34.48;96845.50;219475;1279;22606;-72
2022/04/08 13:56:42;;;;;;;2.10;0.80;;;;;;;14.02;34.22;96831.54;219859;1279;24258;-72
2022/04/08 14:02:02;;;;;;;4.40;2.50;;;;;;;13.89;34.44;96826.78;219179;1279;22756;-72
2022/04/08 14:07:18;;;;;;;2.00;1.00;;;;;;;13.76;35.24;96823.84;219461;1279;22541;-72
2022/04/08 14:12:21;;;;;;;2.40;1.00;;;;;;;13.70;35.64;96818.45;219415;1279;22540;-73
2022/04/08 14:17:26;;;;;;;1.80;1.20;;;;;;;13.57;35.48;96806.74;219492;1279;24255;-72
2022/04/08 14:22:31;;;;;;;2.30;1.40;;;;;;;13.42;35.84;96798.70;219496;1279;24231;-73
2022/04/08 14:27:33;;;;;;;1.20;0.70;;;;;;;13.33;36.09;96786.67;219383;1279;24322;-72
2022/04/08 14:32:36;;;;;;;1.20;0.90;;;;;;;13.30;36.29;96777.15;219548;1279;22577;-72
2022/04/08 14:37:39;;;;;;;2.10;0.80;;;;;;;13.26;36.18;96768.71;219492;1279;22560;-74
2022/04/08 14:42:41;;;;;;;4.90;1.20;;;;;;;13.18;36.48;96767.71;219492;1279;22643;-73
2022/04/08 14:47:44;;;;;;;3.50;2.50;;;;;;;13.08;36.67;96767.58;219436;1279;24868;-72
2022/04/08 14:52:47;;;;;;;4.00;1.50;;;;;;;13.00;36.96;96765.05;219538;1278;25448;-72
2022/04/08 14:57:59;;;;;;;4.30;1.40;;;;;;;12.87;37.12;96762.19;219317;1278;22564;-73
2022/04/08 15:03:02;;;;;;;4.70;3.10;;;;;;;12.77;37.54;96760.66;219624;1278;25394;-72
2022/04/08 15:08:07;;;;;;;2.40;1.10;;;;;;;12.68;37.87;96762.31;219563;1278;26433;-74
2022/04/08 15:13:23;;;;;;;2.20;1.20;;;;;;;12.60;37.82;96764.70;219618;1280;26130;-71
2022/04/08 15:18:39;;;;;;;3.10;1.30;;;;;;;12.52;37.61;96765.73;219540;1278;22650;-72
2022/04/08 15:23:42;;;;;;;3.40;1.60;;;;;;;12.36;38.68;96771.98;219510;1280;22585;-73
2022/04/08 15:28:50;;;;;;;2.40;1.80;;;;;;;12.15;38.70;96777.48;219462;1278;22649;-72
2022/04/08 15:33:59;;;;;;;2.00;0.80;;;;;;;12.01;38.68;96781.20;219382;1277;23220;-72
2022/04/08 15:39:05;;;;;;;4.80;2.30;;;;;;;11.91;39.18;96792.95;219306;1278;22582;-73
2022/04/08 15:44:15;;;;;;;4.10;2.50;;;;;;;11.82;40.17;96806.39;219470;1278;22612;-71
2022/04/08 15:49:20;;;;;;;1.70;1.00;;;;;;;11.66;40.84;96809.13;219630;1279;25392;-71
2022/04/08 15:54:25;;;;;;;2.30;1.10;;;;;;;11.45;41.83;96808.50;219315;1279;22541;-72
2022/04/08 15:59:28;;;;;;;3.60;1.30;;;;;;;11.34;42.28;96813.45;219524;1279;22571;-73
2022/04/08 16:04:31;;;;;;;4.00;1.60;;;;;;;11.24;42.42;96827.08;219042;1279;22531;-72
2022/04/08 16:09:39;;;;;;;2.80;1.80;;;;;;;11.13;42.67;96833.27;219589;1279;24291;-73
2022/04/08 16:14:42;;;;;;;2.10;1.00;;;;;;;10.97;44.22;96840.38;219487;1279;22531;-71
2022/04/08 16:19:47;;;;;;;8.20;5.90;;;;;;;10.70;45.26;96828.55;219410;1280;22602;-72
2022/04/08 16:24:52;;;;;;;2.80;1.20;;;;;;;10.59;44.98;96822.49;219637;1279;22557;-72
2022/04/08 16:29:54;;;;;;;1.90;1.00;;;;;;;10.51;44.80;96810.15;219379;1279;24317;-73
2022/04/08 16:34:57;;;;;;;1.50;1.00;;;;;;;10.44;44.95;96825.17;219456;1279;22580;-72
2022/04/08 16:40:12;;;;;;;1.20;0.60;;;;;;;10.35;45.61;96825.95;219562;1279;22551;-72
2022/04/08 16:45:31;;;;;;;2.30;0.90;;;;;;;10.21;47.09;96815.56;219227;1280;25408;-72
2022/04/08 16:50:51;;;;;;;2.10;0.90;;;;;;;9.99;49.01;96815.83;219512;1278;27381;-72
2022/04/08 16:55:56;;;;;;;1.40;0.80;;;;;;;9.67;52.60;96820.96;219411;1280;22576;-72
2022/04/08 17:01:04;;;;;;;2.30;1.00;;;;;;;9.29;54.24;96822.93;219375;1278;24266;-72
2022/04/08 17:06:10;;;;;;;3.90;1.80;;;;;;;8.88;57.76;96824.59;219388;1277;23844;-74
2022/04/08 17:11:13;;;;;;;2.40;1.30;;;;;;;8.48;60.19;96815.68;219515;1277;25376;-72
2022/04/08 17:16:15;;;;;;;2.60;1.60;;;;;;;8.12;62.44;96814.07;219412;1280;22677;-72
2022/04/08 17:21:21;;;;;;;2.70;1.60;;;;;;;7.84;63.26;96807.55;219431;1280;22704;-72
2022/04/08 17:26:26;;;;;;;5.10;2.10;;;;;;;7.64;64.60;96804.59;219460;1278;22573;-72
2022/04/08 17:31:29;;;;;;;5.80;2.20;;;;;;;7.47;66.31;96809.00;219513;1280;22698;-73
2022/04/08 17:36:32;;;;;;;2.60;1.60;;;;;;;7.31;67.14;96812.13;219578;1280;22564;-73
2022/04/08 17:41:36;;;;;;;4.90;1.90;;;;;;;7.17;67.93;96807.64;219636;1278;23817;-71
2022/04/08 17:46:43;;;;;;;4.50;2.40;;;;;;;7.10;68.34;96796.44;219538;1278;25266;-73
2022/04/08 17:51:50;;;;;;;2.80;1.80;;;;;;;7.00;69.44;96789.01;219522;1280;22544;-72
2022/04/08 17:56:54;;;;;;;4.40;3.30;;;;;;;6.89;70.04;96783.20;219426;1279;22565;-73
2022/04/08 18:02:01;;;;;;;5.60;2.30;;;;;;;6.81;70.35;96777.08;219517;1279;22542;-72
2022/04/08 18:07:07;;;;;;;3.60;2.00;;;;;;;6.76;70.93;96777.32;219650;1279;25447;-73
2022/04/08 18:12:11;;;;;;;4.00;2.10;;;;;;;6.72;71.29;96760.95;219589;1279;22532;-74
2022/04/08 18:17:22;;;;;;;4.60;2.40;;;;;;;6.71;71.59;96758.48;219149;1280;24973;-73
2022/04/08 18:22:34;;;;;;;6.80;2.90;;;;;;;6.73;72.14;96765.08;219717;1278;22562;-73
2022/04/08 18:27:38;;;;;;;7.00;3.40;;;;;;;6.75;72.61;96759.52;219253;1279;22558;-74
2022/04/08 18:32:41;;;;;;;9.90;6.50;;;;;;;6.78;73.35;96746.17;219334;1279;22563;-74
2022/04/08 18:37:44;;;;;;;15.80;7.80;;;;;;;6.81;73.38;96743.20;219306;1279;22568;-74
2022/04/08 18:42:47;;;;;;;14.70;10.00;;;;;;;6.81;73.40;96737.41;219662;1279;23086;-74
2022/04/08 18:47:54;;;;;;;14.90;8.50;;;;;;;6.80;73.74;96719.81;219532;1278;22580;-74
2022/04/08 18:53:15;;;;;;;11.20;7.50;;;;;;;6.82;74.20;96714.43;219467;1278;24252;-75
2022/04/08 18:58:32;;;;;;;11.00;7.10;;;;;;;6.79;74.40;96707.79;219517;1277;22542;-74
2022/04/08 19:04:25;;;;;;;13.00;8.10;;;;;;;6.71;74.35;96689.82;219595;1280;24326;-73
2022/04/08 19:09:36;;;;;;;19.80;12.20;;;;;;;6.61;74.75;96683.78;219513;1277;23206;-73
2022/04/08 19:15:01;;;;;;;22.10;12.20;;;;;;;6.57;75.16;96674.27;219481;1278;22767;-75
2022/04/08 19:20:45;;;;;;;13.30;8.30;;;;;;;6.49;75.61;96648.73;219471;1278;24686;-74
2022/04/08 19:26:26;;;;;;;8.00;5.40;;;;;;;6.39;76.03;96647.70;219038;1277;561921;-74
2022/04/08 19:31:52;;;;;;;10.40;6.20;;;;;;;6.32;76.17;96655.55;219457;1280;22571;-74
2022/04/08 19:36:57;;;;;;;11.40;7.10;;;;;;;6.29;77.11;96653.82;219564;1278;22597;-74
2022/04/08 19:42:06;;;;;;;15.60;10.90;;;;;;;6.29;77.20;96657.46;219827;1277;22560;-74
2022/04/08 19:47:11;;;;;;;15.90;11.50;;;;;;;6.31;77.50;96668.25;219669;1278;22569;-74
2022/04/08 19:52:14;;;;;;;21.50;13.20;;;;;;;6.30;77.64;96670.85;219449;1280;25311;-78
2022/04/08 19:57:21;;;;;;;24.40;16.80;;;;;;;6.31;78.26;96673.98;219445;1281;22584;-75
2022/04/08 20:02:29;;;;;;;35.00;24.70;;;;;;;6.34;78.48;96670.07;219807;1281;22559;-75
2022/04/08 20:07:53;;;;;;;22.00;15.70;;;;;;;6.38;78.94;96659.18;219607;1281;22771;-74
2022/04/08 20:13:23;;;;;;;16.10;12.00;;;;;;;6.34;78.81;96653.11;219935;1280;24359;-74
2022/04/08 20:18:35;;;;;;;12.00;9.90;;;;;;;6.27;79.03;96630.71;219886;1281;24346;-74
2022/04/08 20:23:41;;;;;;;29.60;20.80;;;;;;;6.23;79.18;96620.70;220137;1281;22674;-74
2022/04/08 20:28:43;;;;;;;34.20;21.20;;;;;;;6.19;79.58;96604.28;220022;1281;22502;-74
2022/04/08 20:33:48;;;;;;;28.80;19.50;;;;;;;6.12;79.73;96579.85;220145;1280;23049;-74
2022/04/08 20:39:07;;;;;;;23.00;15.40;;;;;;;6.09;80.26;96570.59;219930;1279;24258;-75
2022/04/08 20:44:12;;;;;;;18.70;11.70;;;;;;;6.07;80.30;96601.48;219797;1279;27008;-74
2022/04/08 20:49:14;;;;;;;17.40;10.50;;;;;;;5.99;80.26;96595.45;219696;1277;24345;-74
2022/04/08 20:54:17;;;;;;;16.80;9.90;;;;;;;5.91;80.43;96592.99;219803;1278;25305;-74
2022/04/08 20:59:23;;;;;;;14.30;7.70;;;;;;;5.80;80.39;96572.16;220127;1278;22567;-74
2022/04/08 21:04:29;;;;;;;10.20;5.60;;;;;;;5.68;80.05;96584.21;220685;1277;22601;-73
2022/04/08 21:09:43;;;;;;;8.40;5.20;;;;;;;5.61;80.49;96581.01;220471;1278;22897;-74
2022/04/08 21:14:47;;;;;;;9.20;4.80;;;;;;;5.53;80.69;96598.11;220611;1277;22636;-74
2022/04/08 21:19:50;;;;;;;8.80;6.00;;;;;;;5.49;80.97;96599.81;220441;1277;25420;-73
2022/04/08 21:24:53;;;;;;;11.10;6.30;;;;;;;5.48;81.15;96601.81;220459;1277;24288;-74
2022/04/08 21:29:57;;;;;;;13.10;6.80;;;;;;;5.47;81.19;96602.20;220153;1278;24261;-74
2022/04/08 21:35:20;;;;;;;12.60;8.20;;;;;;;5.44;81.24;96593.20;219836;1277;22725;-74
2022/04/08 21:40:23;;;;;;;13.50;9.20;;;;;;;5.43;81.57;96591.02;219733;1277;22701;-74
2022/04/08 21:45:29;;;;;;;12.20;7.80;;;;;;;5.42;81.66;96586.67;219797;1277;23059;-73
2022/04/08 21:50:56;;;;;;;10.50;6.50;;;;;;;5.39;81.58;96597.39;220178;1277;24177;-74
2022/04/08 21:56:01;;;;;;;9.10;6.50;;;;;;;5.37;81.89;96587.97;219904;1277;22570;-74
2022/04/08 22:01:04;;;;;;;10.10;7.60;;;;;;;5.35;82.01;96583.59;219926;1278;22531;-73
2022/04/08 22:06:16;;;;;;;12.70;8.30;;;;;;;5.35;82.08;96583.31;220180;1278;22548;-75
2022/04/08 22:11:22;;;;;;;20.10;10.60;;;;;;;5.37;82.49;96580.50;220536;1277;23062;-74
2022/04/08 22:16:25;;;;;;;14.70;10.60;;;;;;;5.39;82.70;96579.31;220572;1277;22582;-74
2022/04/08 22:21:28;;;;;;;7.60;5.20;;;;;;;5.40;82.55;96588.23;220558;1277;22572;-75
2022/04/08 22:26:31;;;;;;;11.80;8.00;;;;;;;5.42;82.59;96583.55;220135;1278;24639;-73
2022/04/08 22:31:50;;;;;;;15.40;9.60;;;;;;;5.44;82.74;96601.48;219959;1277;22560;-75
2022/04/08 22:37:42;;;;;;;14.10;10.20;;;;;;;5.42;82.67;96603.35;219528;1278;23053;-75
2022/04/08 22:43:02;;;;;;;15.40;10.60;;;;;;;5.43;82.97;96610.38;219846;1277;24242;-75
2022/04/08 22:48:05;;;;;;;14.10;10.20;;;;;;;5.43;82.89;96592.20;219937;1277;25496;-75
2022/04/08 22:53:35;;;;;;;15.90;11.20;;;;;;;5.45;83.03;96590.59;219706;1277;25377;-74
2022/04/08 22:59:07;;;;;;;18.80;12.40;;;;;;;5.43;82.90;96597.11;219903;1277;22541;-75
2022/04/08 23:04:10;;;;;;;18.60;13.00;;;;;;;5.41;82.99;96610.38;220014;1277;24327;-74
2022/04/08 23:09:16;;;;;;;22.10;14.00;;;;;;;5.41;83.12;96596.58;219614;1280;22571;-75
2022/04/08 23:14:21;;;;;;;24.50;16.40;;;;;;;5.42;83.08;96588.11;220081;1277;22581;-74
2022/04/08 23:19:31;;;;;;;23.30;15.30;;;;;;;5.43;83.20;96561.16;220228;1277;22564;-74
2022/04/08 23:24:34;;;;;;;26.00;16.20;;;;;;;5.44;83.33;96557.70;219967;1279;22542;-75
2022/04/08 23:29:42;;;;;;;27.80;17.80;;;;;;;5.43;83.24;96544.38;220445;1278;22542;-74
2022/04/08 23:34:53;;;;;;;28.50;19.00;;;;;;;5.43;83.45;96548.01;220753;1277;22589;-73
2022/04/08 23:40:06;;;;;;;30.80;20.70;;;;;;;5.40;83.26;96543.09;220571;1277;22561;-73
2022/04/08 23:45:10;;;;;;;33.60;22.30;;;;;;;5.38;83.48;96537.02;220790;1277;22641;-74
2022/04/08 23:50:15;;;;;;;30.50;20.90;;;;;;;5.37;83.65;96557.36;220700;1280;22476;-73
2022/04/08 23:55:31;;;;;;;27.20;18.40;;;;;;;5.38;84.01;96556.64;220702;1279;22567;-74
